Currently 71°F in Anza, California, USA
71°F
92°F / 63°F
7 mph NW
0.00"
Tuesday, August 14, 2018 9:55 PM PDT

Anza, California Weather Summary
Last 36 Hours

Temperature Winds Hourly Humidity Dewpoint
Time Report Norm Report Norm Max Gusts Precip. Rpt. Norm Rpt. Norm Pressure
1Tue 09:55 PM  70.5°F  70°F  7 mph NW  5 mph  10 mph  0.00"  72%  48%  61°F  49°F  N/A
Tue 09:00 PM  72.4°F  72°F  7 mph NW  5 mph  9 mph  0.00"  68%  45%  61°F  49°F  N/A
Tue 08:00 PM  76.2°F  76°F  5 mph W  6 mph  11 mph  0.00"  60%  41%  61°F  49°F  N/A
Tue 07:00 PM  80.7°F  81°F  calm  10 mph  18 mph  0.00"  49%  35%  59°F  50°F  N/A
Tue 06:00 PM  84.8°F  85°F  13 mph W  12 mph  19 mph  0.00"  42%  29%  58°F  49°F  N/A
Tue 05:00 PM  88.3°F  88°F  12 mph W  12 mph  20 mph  0.00"  36%  27%  57°F  49°F  N/A
Tue 04:00 PM  89.8°F  90°F  10 mph W  11 mph  21 mph  0.00"  30%  25%  53°F  48°F  N/A
Tue 03:00 PM  90.6°F  90°F  8 mph W  11 mph  22 mph  0.00"  29%  24%  53°F  48°F  N/A
2Tue 02:18 PM  92.1°F  89°F  15 mph W  10 mph  21 mph  ----  27%  25%  53°F  47°F  N/A
Tue 02:00 PM  91.6°F  89°F  13 mph W  10 mph  21 mph  0.00"  29%  24%  53°F  47°F  N/A
Tue 01:00 PM  89.4°F  89°F  3 mph NW  10 mph  15 mph  0.00"  32%  24%  55°F  46°F  N/A
Tue 12:00 PM  88.7°F  88°F  10 mph S  10 mph  15 mph  0.00"  34%  25%  55°F  47°F  N/A
Tue 11:00 AM  87.8°F  87°F  7 mph SE  8 mph  12 mph  0.00"  36%  26%  56°F  46°F  N/A
Tue 10:00 AM  84.8°F  84°F  4 mph NW  7 mph  9 mph  0.00"  37%  28%  54°F  47°F  N/A
Tue 09:00 AM  79.7°F  81°F  calm  6 mph  11 mph  0.00"  43%  32%  54°F  47°F  N/A
Tue 08:00 AM  74.6°F  75°F  7 mph NW  5 mph  10 mph  0.00"  48%  41%  53°F  49°F  N/A
Tue 07:00 AM  67.0°F  65°F  calm  3 mph  7 mph  0.00"  64%  55%  54°F  48°F  N/A
Tue 06:00 AM  65.0°F  63°F  calm  3 mph  none  0.00"  67%  58%  53°F  47°F  N/A
Tue 05:00 AM  64.9°F  63°F  calm  4 mph  none  0.00"  68%  57%  54°F  47°F  N/A
Tue 04:00 AM  65.2°F  64°F  calm  4 mph  none  0.00"  68%  56%  54°F  48°F  N/A
Tue 03:00 AM  65.1°F  65°F  calm  4 mph  10 mph  0.00"  69%  56%  55°F  48°F  N/A
Tue 02:00 AM  63.9°F  65°F  8 mph NW  4 mph  12 mph  0.00"  72%  57%  54°F  49°F  N/A
3Tue 01:39 AM  63.5°F  65°F  7 mph NW  5 mph  10 mph  ----  73%  56%  54°F  49°F  N/A
Tue 01:00 AM  64.1°F  66°F  8 mph NW  5 mph  11 mph  0.00"  72%  56%  55°F  49°F  N/A
Tue 12:00 AM  65.8°F  67°F  calm  5 mph  none  0.00"  69%  54%  55°F  49°F  N/A
Mon 11:00 PM  67.5°F  68°F  calm  5 mph  10 mph  0.00"  68%  52%  56°F  49°F  N/A
Mon 10:00 PM  69.2°F  70°F  8 mph NW  5 mph  11 mph  0.00"  66%  48%  57°F  49°F  N/A
Mon 09:00 PM  71.3°F  72°F  7 mph NW  5 mph  10 mph  0.00"  63%  44%  58°F  49°F  N/A
Mon 08:00 PM  74.2°F  76°F  7 mph NW  6 mph  15 mph  0.00"  58%  40%  58°F  49°F  N/A
Mon 07:00 PM  79.9°F  81°F  9 mph W  10 mph  16 mph  0.00"  48%  34%  58°F  49°F  N/A
Mon 06:00 PM  84.9°F  86°F  calm  12 mph  18 mph  0.00"  40%  29%  57°F  48°F  N/A
Mon 05:00 PM  87.4°F  88°F  14 mph W  12 mph  19 mph  0.00"  37%  26%  57°F  48°F  N/A
Mon 04:00 PM  89.3°F  90°F  14 mph W  11 mph  20 mph  0.00"  31%  25%  53°F  48°F  N/A
Mon 03:00 PM  89.9°F  90°F  11 mph NW  11 mph  21 mph  0.00"  30%  24%  54°F  47°F  N/A
Mon 02:00 PM  90.0°F  89°F  10 mph W  10 mph  20 mph  0.00"  32%  24%  56°F  47°F  N/A
Mon 01:00 PM  89.9°F  89°F  12 mph NW  10 mph  20 mph  0.00"  33%  23%  56°F  45°F  N/A
Mon 12:00 PM  87.2°F  88°F  9 mph NW  9 mph  17 mph  0.00"  36%  24%  56°F  46°F  N/A
Mon 11:00 AM  83.8°F  87°F  calm  8 mph  17 mph  0.00"  41%  25%  57°F  45°F  N/A
Mon 10:00 AM  80.0°F  84°F  calm  7 mph  16 mph  0.00"  48%  27%  58°F  46°F  N/A

  1. Current weather data. No green row appears if the current weather data is also the high or low for the current day.
  2. High temperature for the current day.
  3. Low temperature for the current day.

The Anza, California weather pages are a service of WeatherCurrents. The Anza Valley is southwestern Riverside County, east of Temecula and Aguanga, south of Mount San Jacinto and west of Mount Santa Rosa.
Copyright ©Tue Aug 14 21:55:35 PDT 2018  WeatherCurrents. All rights reserved. - Submit questions and comments - Privacy Policy

This page automatically refreshes every 10 minutes.